createdAt,value
2018-06-04T00:00:22.901Z,10.60
2018-06-04T00:02:50.618Z,16.40
2018-06-04T00:05:18.340Z,9.10
2018-06-04T00:07:46.076Z,21.73
2018-06-04T00:10:13.862Z,15.67
2018-06-04T00:12:41.589Z,9.60
2018-06-04T00:15:09.358Z,9.43
2018-06-04T00:17:37.066Z,9.97
2018-06-04T00:20:04.811Z,9.70
2018-06-04T00:22:32.626Z,9.17
2018-06-04T00:25:00.374Z,11.13
2018-06-04T00:27:28.134Z,9.80
2018-06-04T00:29:56.164Z,8.87
2018-06-04T00:32:24.117Z,9.70
2018-06-04T00:34:51.916Z,10.10
2018-06-04T00:37:19.698Z,10.20
2018-06-04T00:39:47.886Z,10.23
2018-06-04T00:42:15.676Z,9.60
2018-06-04T00:44:43.419Z,9.53
2018-06-04T00:47:11.195Z,10.00
2018-06-04T00:49:39.130Z,10.73
2018-06-04T00:52:07.026Z,10.07
2018-06-04T00:54:34.762Z,10.60
2018-06-04T00:57:03.081Z,9.33
2018-06-04T00:59:31.024Z,10.23
2018-06-04T01:01:58.770Z,9.23
2018-06-04T01:04:26.554Z,10.23
2018-06-04T01:06:54.525Z,8.90
2018-06-04T01:09:22.415Z,10.87
2018-06-04T01:11:50.314Z,10.20
2018-06-04T01:14:18.193Z,10.93
2018-06-04T01:16:46.113Z,11.77
2018-06-04T01:19:14.044Z,9.77
2018-06-04T01:21:43.752Z,10.23
2018-06-04T01:24:11.514Z,9.97
2018-06-04T01:26:39.197Z,10.10
2018-06-04T01:29:07.025Z,10.73
2018-06-04T01:31:34.843Z,10.20
2018-06-04T01:34:02.735Z,11.50
2018-06-04T01:36:30.634Z,11.43
2018-06-04T01:38:59.050Z,9.37
2018-06-04T01:41:26.845Z,11.00
2018-06-04T01:43:54.609Z,10.93
2018-06-04T01:46:22.294Z,11.17
2018-06-04T01:48:50.122Z,12.13
2018-06-04T01:51:17.990Z,11.70
2018-06-04T01:53:45.848Z,10.33
2018-06-04T01:56:14.502Z,9.80
2018-06-04T01:58:42.277Z,9.93
2018-06-04T02:01:10.142Z,11.47
2018-06-04T02:03:38.034Z,10.23
2018-06-04T02:06:05.935Z,10.63
2018-06-04T02:08:33.840Z,12.30
2018-06-04T02:11:01.532Z,9.10
2018-06-04T02:13:29.301Z,10.20
2018-06-04T02:15:57.073Z,10.53
2018-06-04T02:18:24.958Z,10.00
2018-06-04T02:20:53.040Z,10.57
2018-06-04T02:23:20.817Z,11.07
2018-06-04T02:25:48.808Z,9.60
2018-06-04T02:28:16.773Z,10.40
2018-06-04T02:30:44.865Z,11.07
2018-06-04T02:33:13.034Z,11.07
2018-06-04T02:35:40.878Z,10.30
2018-06-04T02:38:08.747Z,10.70
2018-06-04T02:40:36.598Z,10.90
2018-06-04T02:43:04.421Z,12.60
2018-06-04T02:45:32.341Z,11.20
2018-06-04T02:48:00.205Z,11.33
2018-06-04T02:50:27.990Z,11.37
2018-06-04T02:52:55.784Z,11.33
2018-06-04T02:55:23.659Z,11.30
2018-06-04T02:57:51.430Z,10.80
2018-06-04T03:00:19.214Z,11.27
2018-06-04T03:02:47.039Z,11.23
2018-06-04T03:05:14.796Z,11.33
2018-06-04T03:07:42.864Z,10.60
2018-06-04T03:10:10.675Z,11.73
2018-06-04T03:12:38.747Z,11.60
2018-06-04T03:15:06.651Z,11.33
2018-06-04T03:17:34.667Z,10.60
2018-06-04T03:20:02.399Z,12.10
2018-06-04T03:22:31.222Z,19.10
2018-06-04T03:24:59.146Z,11.67
2018-06-04T03:27:26.858Z,12.17
2018-06-04T03:29:54.622Z,11.70
2018-06-04T03:32:22.529Z,11.80
2018-06-04T03:34:50.281Z,10.17
2018-06-04T03:37:18.010Z,11.10
2018-06-04T03:39:46.606Z,12.30
2018-06-04T03:42:14.429Z,11.93
2018-06-04T03:44:42.206Z,11.37
2018-06-04T03:47:09.924Z,11.20
2018-06-04T03:49:37.702Z,11.53
2018-06-04T03:52:05.549Z,10.93
2018-06-04T03:54:33.312Z,10.87
2018-06-04T03:57:01.116Z,11.20
2018-06-04T03:59:28.888Z,13.07
2018-06-04T04:01:56.677Z,12.70
2018-06-04T04:04:24.422Z,12.13
2018-06-04T04:06:52.262Z,13.10
2018-06-04T04:09:19.960Z,14.33
2018-06-04T04:11:47.844Z,13.30
2018-06-04T04:14:15.730Z,12.57
2018-06-04T04:16:43.663Z,12.07
2018-06-04T04:19:11.410Z,12.93
2018-06-04T04:21:39.177Z,11.60
2018-06-04T04:24:06.991Z,12.47
2018-06-04T04:26:34.698Z,11.27
2018-06-04T04:29:02.438Z,10.80
2018-06-04T04:31:30.150Z,10.70
2018-06-04T04:33:57.913Z,11.13
2018-06-04T04:36:25.616Z,11.07
2018-06-04T04:38:53.570Z,11.20
2018-06-04T04:41:21.261Z,10.73
2018-06-04T04:43:49.006Z,10.80
2018-06-04T04:46:16.750Z,11.00
2018-06-04T04:48:44.533Z,12.23
2018-06-04T04:51:12.286Z,10.47
2018-06-04T04:53:40.296Z,12.27
2018-06-04T04:56:08.067Z,12.50
2018-06-04T04:58:35.770Z,11.17
2018-06-04T05:01:03.605Z,11.30
2018-06-04T05:03:31.307Z,11.47
2018-06-04T05:05:59.166Z,11.00
2018-06-04T05:08:26.889Z,10.60
2018-06-04T05:10:54.717Z,11.57
2018-06-04T05:13:22.421Z,10.67
2018-06-04T05:15:50.142Z,12.00
2018-06-04T05:18:18.010Z,11.33
2018-06-04T05:20:46.071Z,12.90
2018-06-04T05:23:13.778Z,12.00
2018-06-04T05:25:41.557Z,11.90
2018-06-04T05:28:09.273Z,10.97
2018-06-04T05:30:37.074Z,11.67
2018-06-04T05:33:05.083Z,11.60
2018-06-04T05:35:32.799Z,11.50
2018-06-04T05:38:00.561Z,11.17
2018-06-04T05:40:28.353Z,10.80
2018-06-04T05:42:56.118Z,9.53
2018-06-04T05:45:23.847Z,9.00
2018-06-04T05:47:51.639Z,9.10
2018-06-04T05:50:19.353Z,9.40
2018-06-04T05:52:47.286Z,9.57
2018-06-04T05:55:15.022Z,7.00
2018-06-04T05:57:42.745Z,9.97
2018-06-04T06:00:10.559Z,7.73
2018-06-04T06:02:38.310Z,8.63
2018-06-04T06:05:06.211Z,7.67
2018-06-04T06:07:33.971Z,12.90
2018-06-04T06:10:01.771Z,9.00
2018-06-04T06:12:29.389Z,9.63
2018-06-04T06:14:57.217Z,9.70
2018-06-04T06:17:24.983Z,9.40
2018-06-04T06:19:52.707Z,8.20
2018-06-04T06:22:20.419Z,10.00
2018-06-04T06:24:52.094Z,9.70
2018-06-04T06:27:19.952Z,9.30
2018-06-04T06:29:47.676Z,9.23
2018-06-04T06:32:15.541Z,9.00
2018-06-04T06:34:43.282Z,7.73
2018-06-04T06:37:10.989Z,8.30
2018-06-04T06:39:38.743Z,8.77
2018-06-04T06:42:06.518Z,6.73
2018-06-04T06:44:34.261Z,8.63
2018-06-04T06:47:02.038Z,8.07
2018-06-04T06:49:29.793Z,7.40
2018-06-04T06:51:57.531Z,7.70
2018-06-04T06:54:25.522Z,7.77
2018-06-04T06:56:53.240Z,7.20
2018-06-04T06:59:21.067Z,7.43
2018-06-04T07:01:48.796Z,6.67
2018-06-04T07:04:16.509Z,6.90
2018-06-04T07:06:44.504Z,6.50
2018-06-04T07:09:12.348Z,6.60
2018-06-04T07:11:40.110Z,6.50
2018-06-04T07:14:07.915Z,6.27
2018-06-04T07:16:35.694Z,7.13
2018-06-04T07:19:03.469Z,8.03
2018-06-04T07:21:31.282Z,5.83
2018-06-04T07:23:58.976Z,7.33
2018-06-04T07:26:26.739Z,6.30
2018-06-04T07:28:54.456Z,5.37
2018-06-04T07:31:22.261Z,6.50
2018-06-04T07:33:50.132Z,6.60
2018-06-04T07:36:18.017Z,6.13
2018-06-04T07:38:45.771Z,5.90
2018-06-04T07:41:13.584Z,5.63
2018-06-04T07:43:41.334Z,6.33
2018-06-04T07:46:09.074Z,6.17
2018-06-04T07:48:36.794Z,5.93
2018-06-04T07:51:04.535Z,5.97
2018-06-04T07:53:32.335Z,6.70
2018-06-04T07:56:00.074Z,6.73
2018-06-04T07:58:27.808Z,5.23
2018-06-04T08:00:55.588Z,5.77
2018-06-04T08:03:23.449Z,6.60
2018-06-04T08:05:51.226Z,6.77
2018-06-04T08:08:19.155Z,6.40
2018-06-04T08:10:49.086Z,6.13
2018-06-04T08:13:16.946Z,5.13
2018-06-04T08:15:44.693Z,6.23
2018-06-04T08:18:12.504Z,6.13
2018-06-04T08:20:40.273Z,4.90
2018-06-04T08:23:08.002Z,5.60
2018-06-04T08:25:35.714Z,5.30
2018-06-04T08:28:03.587Z,5.83
2018-06-04T08:30:31.542Z,5.70
2018-06-04T08:32:59.355Z,5.20
2018-06-04T08:35:27.367Z,4.97
2018-06-04T08:37:55.224Z,4.63
2018-06-04T08:40:23.062Z,5.13
2018-06-04T08:42:50.728Z,5.40
2018-06-04T08:45:18.472Z,5.30
2018-06-04T08:47:46.215Z,4.57
2018-06-04T08:50:13.909Z,4.90
2018-06-04T08:52:41.708Z,5.13
2018-06-04T08:55:09.367Z,4.70
2018-06-04T08:57:37.102Z,6.83
2018-06-04T09:00:04.966Z,5.10
2018-06-04T09:02:32.715Z,5.27
2018-06-04T09:05:00.591Z,5.40
2018-06-04T09:07:28.397Z,4.80
2018-06-04T09:09:56.171Z,5.50
2018-06-04T09:12:23.989Z,5.43
2018-06-04T09:14:51.651Z,4.93
2018-06-04T09:17:19.544Z,4.80
2018-06-04T09:19:47.366Z,4.40
2018-06-04T09:22:15.129Z,5.47
2018-06-04T09:24:42.895Z,4.60
2018-06-04T09:27:10.654Z,4.30
2018-06-04T09:29:38.621Z,4.30
2018-06-04T09:32:06.385Z,5.67
2018-06-04T09:34:34.165Z,4.70
2018-06-04T09:37:03.363Z,3.53
2018-06-04T09:39:31.267Z,4.37
2018-06-04T09:41:58.990Z,4.13
2018-06-04T09:44:26.782Z,6.03
2018-06-04T09:46:54.560Z,5.40
2018-06-04T09:49:22.350Z,4.53
2018-06-04T09:51:50.108Z,4.20
2018-06-04T09:54:17.913Z,4.80
2018-06-04T09:56:45.857Z,4.60
2018-06-04T09:59:15.601Z,4.33
2018-06-04T10:01:43.330Z,4.17
2018-06-04T10:04:11.161Z,4.20
2018-06-04T10:06:38.860Z,3.53
2018-06-04T10:09:07.856Z,4.17
2018-06-04T10:11:35.660Z,4.07
2018-06-04T10:14:03.306Z,4.77
2018-06-04T10:16:31.140Z,4.23
2018-06-04T10:18:59.332Z,4.20
2018-06-04T10:21:27.650Z,4.37
2018-06-04T10:23:55.451Z,4.57
2018-06-04T10:26:23.178Z,4.00
2018-06-04T10:28:51.005Z,6.20
2018-06-04T10:31:18.972Z,4.40
2018-06-04T10:33:46.910Z,4.33
2018-06-04T10:36:14.626Z,3.83
2018-06-04T10:38:42.355Z,4.30
2018-06-04T10:41:10.134Z,5.00
2018-06-04T10:43:37.803Z,4.90
2018-06-04T10:46:05.722Z,5.10
2018-06-04T10:48:33.510Z,4.90
2018-06-04T10:51:01.529Z,5.20
2018-06-04T10:53:29.481Z,4.73
2018-06-04T10:55:57.178Z,5.07
2018-06-04T10:58:25.119Z,4.80
2018-06-04T11:00:53.034Z,5.23
2018-06-04T11:03:21.185Z,4.90
2018-06-04T11:05:49.264Z,4.63
2018-06-04T11:08:17.270Z,5.30
2018-06-04T11:10:45.355Z,4.93
2018-06-04T11:13:13.108Z,4.03
2018-06-04T11:15:40.976Z,4.00
2018-06-04T11:18:08.826Z,4.60
2018-06-04T11:20:36.909Z,4.20
2018-06-04T11:23:05.092Z,4.60
2018-06-04T11:25:33.240Z,5.17
2018-06-04T11:28:01.250Z,4.30
2018-06-04T11:30:29.563Z,4.80
2018-06-04T11:32:57.670Z,4.20
2018-06-04T11:35:25.406Z,5.00
2018-06-04T11:37:53.296Z,4.80
2018-06-04T11:40:21.142Z,4.43
2018-06-04T11:42:49.210Z,4.80
2018-06-04T11:45:17.030Z,5.20
2018-06-04T11:47:44.877Z,5.30
2018-06-04T11:50:12.649Z,5.07
2018-06-04T11:52:40.389Z,4.87
2018-06-04T11:55:08.127Z,5.20
2018-06-04T11:57:36.118Z,4.40
2018-06-04T12:00:04.128Z,5.60
2018-06-04T12:02:32.234Z,5.93
2018-06-04T12:04:59.954Z,5.37
2018-06-04T12:07:27.769Z,5.53
2018-06-04T12:09:55.852Z,5.60
2018-06-04T12:12:23.702Z,5.50
2018-06-04T12:14:51.544Z,4.80
2018-06-04T12:17:20.718Z,5.40
2018-06-04T12:19:48.677Z,4.93
2018-06-04T12:22:16.552Z,4.43
2018-06-04T12:24:44.317Z,4.60
2018-06-04T12:27:12.069Z,4.67
2018-06-04T12:29:39.905Z,5.27
2018-06-04T12:32:07.888Z,5.17
2018-06-04T12:34:35.625Z,5.30
2018-06-04T12:37:04.142Z,4.43
2018-06-04T12:39:32.049Z,4.77
2018-06-04T12:41:59.880Z,4.80
2018-06-04T12:44:27.692Z,5.00
2018-06-04T12:46:55.575Z,4.87
2018-06-04T12:49:23.441Z,5.30
2018-06-04T12:51:51.319Z,5.10
2018-06-04T12:54:19.109Z,4.87
2018-06-04T12:56:47.750Z,4.83
2018-06-04T12:59:15.658Z,4.70
2018-06-04T13:01:43.605Z,5.50
2018-06-04T13:04:11.549Z,4.90
2018-06-04T13:06:39.315Z,4.77
2018-06-04T13:09:07.509Z,4.93
2018-06-04T13:11:35.396Z,4.87
2018-06-04T13:14:03.862Z,5.83
2018-06-04T13:16:31.706Z,4.90
2018-06-04T13:18:59.536Z,5.53
2018-06-04T13:21:28.284Z,5.53
2018-06-04T13:23:56.264Z,6.20
2018-06-04T13:26:24.203Z,5.97
2018-06-04T13:28:52.164Z,5.37
2018-06-04T13:31:25.470Z,6.00
2018-06-04T13:33:53.180Z,5.20
2018-06-04T13:36:22.713Z,6.30
2018-06-04T13:38:50.537Z,5.90
2018-06-04T13:41:18.428Z,6.07
2018-06-04T13:43:46.205Z,6.13
2018-06-04T13:46:14.104Z,6.17
2018-06-04T13:48:41.833Z,6.60
2018-06-04T13:51:09.769Z,5.60
2018-06-04T13:53:37.920Z,6.17
2018-06-04T13:56:05.739Z,5.77
2018-06-04T13:58:33.834Z,5.67
2018-06-04T14:01:04.035Z,5.93
2018-06-04T14:03:32.031Z,6.27
2018-06-04T14:06:00.033Z,6.30
2018-06-04T14:08:27.870Z,7.20
2018-06-04T14:10:55.685Z,5.90
2018-06-04T14:13:24.849Z,5.30
2018-06-04T14:15:52.857Z,5.73
2018-06-04T14:18:20.646Z,4.50
2018-06-04T14:20:48.534Z,5.07
2018-06-04T14:23:16.270Z,5.17
2018-06-04T14:25:44.052Z,5.13
2018-06-04T14:28:13.995Z,5.20
2018-06-04T14:30:41.802Z,5.57
2018-06-04T14:33:09.492Z,4.83
2018-06-04T14:35:37.314Z,5.37
2018-06-04T14:38:05.276Z,5.50
2018-06-04T14:40:33.102Z,5.40
2018-06-04T14:43:00.934Z,4.73
2018-06-04T14:45:28.695Z,4.57
2018-06-04T14:47:56.448Z,4.73
2018-06-04T14:50:27.482Z,4.40
2018-06-04T14:52:55.193Z,4.63
2018-06-04T14:55:22.925Z,4.30
2018-06-04T14:57:50.520Z,4.40
2018-06-04T15:00:18.308Z,3.93
2018-06-04T15:02:46.000Z,4.70
2018-06-04T15:05:13.708Z,4.57
2018-06-04T15:07:44.746Z,4.67
2018-06-04T15:10:12.511Z,5.30
2018-06-04T15:12:40.493Z,5.20
2018-06-04T15:15:08.340Z,4.90
2018-06-04T15:17:36.262Z,4.73
2018-06-04T15:20:04.125Z,4.70
2018-06-04T15:22:32.146Z,5.23
2018-06-04T15:27:52.746Z,4.97
2018-06-04T15:30:20.438Z,5.47
2018-06-04T15:32:48.293Z,5.40
2018-06-04T15:35:19.714Z,5.17
2018-06-04T15:37:47.735Z,5.90
2018-06-04T15:40:15.439Z,5.07
2018-06-04T15:42:44.164Z,5.17
2018-06-04T15:45:11.884Z,4.57
2018-06-04T15:47:39.652Z,5.67
2018-06-04T15:50:07.808Z,5.17
2018-06-04T15:52:35.730Z,5.70
2018-06-04T15:55:05.023Z,6.30
2018-06-04T15:57:32.846Z,5.73
2018-06-04T16:00:00.583Z,5.57
2018-06-04T16:02:28.331Z,5.63
2018-06-04T16:04:56.030Z,5.77
2018-06-04T16:07:23.984Z,6.50
2018-06-04T16:09:51.726Z,6.90
2018-06-04T16:12:19.449Z,6.10
2018-06-04T16:14:47.274Z,6.73
2018-06-04T16:17:14.992Z,6.30
2018-06-04T16:19:43.100Z,7.10
2018-06-04T16:22:11.042Z,6.60
2018-06-04T16:24:38.797Z,7.30
2018-06-04T16:27:07.619Z,7.17
2018-06-04T16:29:35.384Z,7.27
2018-06-04T16:32:03.265Z,7.87
2018-06-04T16:34:30.975Z,6.53
2018-06-04T16:36:58.732Z,7.73
2018-06-04T16:39:26.537Z,7.37
2018-06-04T16:41:54.273Z,7.43
2018-06-04T16:44:22.351Z,7.03
2018-06-04T16:46:50.093Z,6.50
2018-06-04T16:49:17.873Z,6.80
2018-06-04T16:51:45.710Z,5.93
2018-06-04T16:54:13.554Z,7.07
2018-06-04T16:56:41.470Z,6.93
2018-06-04T16:59:09.510Z,6.77
2018-06-04T17:01:37.206Z,6.93
2018-06-04T17:04:05.062Z,6.70
2018-06-04T17:06:32.794Z,7.00
2018-06-04T17:09:00.573Z,7.70
2018-06-04T17:11:28.518Z,8.03
2018-06-04T17:13:56.430Z,6.93
2018-06-04T17:16:24.218Z,8.00
2018-06-04T17:18:52.094Z,7.60
2018-06-04T17:21:20.301Z,7.47
2018-06-04T17:23:48.141Z,6.97
2018-06-04T17:26:16.182Z,7.30
2018-06-04T17:28:43.942Z,7.10
2018-06-04T17:31:11.790Z,7.87
2018-06-04T17:33:39.577Z,7.80
2018-06-04T17:36:07.499Z,7.53
2018-06-04T17:38:35.330Z,7.73
2018-06-04T17:41:03.337Z,6.43
2018-06-04T17:43:31.106Z,8.37
2018-06-04T17:45:58.915Z,7.60
2018-06-04T17:48:26.850Z,8.63
2018-06-04T17:50:54.661Z,7.53
2018-06-04T17:53:22.626Z,8.80
2018-06-04T17:55:51.177Z,8.67
2018-06-04T17:58:19.271Z,8.77
2018-06-04T18:00:47.058Z,8.13
2018-06-04T18:03:14.808Z,8.67
2018-06-04T18:05:42.518Z,8.27
2018-06-04T18:08:17.326Z,8.57
2018-06-04T18:10:45.125Z,8.47
2018-06-04T18:13:12.893Z,8.40
2018-06-04T18:15:42.758Z,8.87
2018-06-04T18:18:10.806Z,8.97
2018-06-04T18:20:38.987Z,10.87
2018-06-04T18:23:07.774Z,8.13
2018-06-04T18:25:35.731Z,7.70
2018-06-04T18:28:03.965Z,8.27
2018-06-04T18:30:32.644Z,7.60
2018-06-04T18:33:00.832Z,8.73
2018-06-04T18:35:28.967Z,7.90
2018-06-04T18:37:57.308Z,7.90
2018-06-04T18:40:25.287Z,9.03
2018-06-04T18:42:53.538Z,7.90
2018-06-04T18:45:21.521Z,8.37
2018-06-04T18:47:49.858Z,8.43
2018-06-04T18:50:17.634Z,8.73
2018-06-04T18:52:45.609Z,8.10
2018-06-04T18:55:13.641Z,9.67
2018-06-04T18:57:41.578Z,9.20
2018-06-04T19:00:09.716Z,9.03
2018-06-04T19:02:37.733Z,9.47
2018-06-04T19:05:05.867Z,9.30
2018-06-04T19:07:33.904Z,8.77
2018-06-04T19:10:02.203Z,8.60
2018-06-04T19:12:30.104Z,8.50
2018-06-04T19:14:58.002Z,9.13
2018-06-04T19:17:25.849Z,8.40
2018-06-04T19:19:53.640Z,8.70
2018-06-04T19:22:21.327Z,10.07
2018-06-04T19:24:49.242Z,9.57
2018-06-04T19:27:29.479Z,10.33
2018-06-04T19:29:57.590Z,11.33
2018-06-04T19:32:25.507Z,9.93
2018-06-04T19:34:53.780Z,8.90
2018-06-04T19:37:21.703Z,10.00
2018-06-04T19:39:49.974Z,8.60
2018-06-04T19:42:17.918Z,9.80
2018-06-04T19:44:46.700Z,10.33
2018-06-04T19:47:14.549Z,10.80
2018-06-04T19:49:42.328Z,10.87
2018-06-04T19:52:10.361Z,9.77
2018-06-04T19:54:38.674Z,10.30
2018-06-04T19:57:06.442Z,9.73
2018-06-04T19:59:34.474Z,10.07
2018-06-04T20:02:02.244Z,9.87
2018-06-04T20:04:30.055Z,9.90
2018-06-04T20:06:57.860Z,9.20
2018-06-04T20:09:25.732Z,9.70
2018-06-04T20:11:54.644Z,9.13
2018-06-04T20:14:22.638Z,11.07
2018-06-04T20:16:54.184Z,10.47
2018-06-04T20:19:23.117Z,11.33
2018-06-04T20:21:50.958Z,10.80
2018-06-04T20:24:19.471Z,12.20
2018-06-04T20:26:58.485Z,10.57
2018-06-04T20:29:26.444Z,10.83
2018-06-04T20:31:54.314Z,10.40
2018-06-04T20:34:22.075Z,11.27
2018-06-04T20:36:49.818Z,11.93
2018-06-04T20:39:20.513Z,12.23
2018-06-04T20:41:48.252Z,16.67
2018-06-04T20:44:21.895Z,12.73
2018-06-04T20:46:50.086Z,12.33
2018-06-04T20:49:17.843Z,10.77
2018-06-04T20:51:45.721Z,11.77
2018-06-04T20:54:13.533Z,11.60
2018-06-04T20:56:41.364Z,11.87
2018-06-04T20:59:09.160Z,11.33
2018-06-04T21:01:36.918Z,11.47
2018-06-04T21:04:04.766Z,11.00
2018-06-04T21:06:32.606Z,10.60
2018-06-04T21:09:00.412Z,12.20
2018-06-04T21:11:28.246Z,14.33
2018-06-04T21:13:57.190Z,12.00
2018-06-04T21:16:25.008Z,11.67
2018-06-04T21:18:52.822Z,11.67
2018-06-04T21:21:20.535Z,11.50
2018-06-04T21:23:48.334Z,12.60
2018-06-04T21:26:16.173Z,13.67
2018-06-04T21:28:44.052Z,12.40
2018-06-04T21:31:11.942Z,12.40
2018-06-04T21:33:39.806Z,14.13
2018-06-04T21:36:07.542Z,13.40
2018-06-04T21:38:35.392Z,13.67
2018-06-04T21:41:03.306Z,13.13
2018-06-04T21:43:31.047Z,13.67
2018-06-04T21:45:58.905Z,12.73
2018-06-04T21:48:26.601Z,14.13
2018-06-04T21:50:54.370Z,13.63
2018-06-04T21:53:22.817Z,17.77
2018-06-04T21:55:52.506Z,15.03
2018-06-04T21:58:22.163Z,14.50
2018-06-04T22:00:50.166Z,12.73
2018-06-04T22:03:17.931Z,13.30
2018-06-04T22:05:45.664Z,13.77
2018-06-04T22:08:13.462Z,13.70
2018-06-04T22:10:41.297Z,14.10
2018-06-04T22:13:09.103Z,13.63
2018-06-04T22:15:36.958Z,18.07
2018-06-04T22:18:04.804Z,13.90
2018-06-04T22:20:32.507Z,14.40
2018-06-04T22:23:00.318Z,14.37
2018-06-04T22:25:28.097Z,15.90
2018-06-04T22:27:56.364Z,14.43
2018-06-04T22:30:24.070Z,14.07
2018-06-04T22:32:51.938Z,14.67
2018-06-04T22:35:19.747Z,14.27
2018-06-04T22:37:47.522Z,14.57
2018-06-04T22:40:15.315Z,13.50
2018-06-04T22:42:43.066Z,14.80
2018-06-04T22:45:10.993Z,16.43
2018-06-04T22:47:38.732Z,15.20
2018-06-04T22:50:06.438Z,14.87
2018-06-04T22:52:35.058Z,14.03
2018-06-04T22:55:03.505Z,15.30
2018-06-04T22:57:32.010Z,14.60
2018-06-04T22:59:59.799Z,19.53
2018-06-04T23:02:27.583Z,15.07
2018-06-04T23:04:55.233Z,15.00
2018-06-04T23:07:22.971Z,15.17
2018-06-04T23:09:50.704Z,14.73
2018-06-04T23:12:18.404Z,15.37
2018-06-04T23:14:46.107Z,15.10
2018-06-04T23:17:14.008Z,14.70
2018-06-04T23:19:41.792Z,15.10
2018-06-04T23:22:09.553Z,14.00
2018-06-04T23:24:37.277Z,14.93
2018-06-04T23:27:05.463Z,14.13
2018-06-04T23:29:33.290Z,14.00
2018-06-04T23:32:00.987Z,13.43
2018-06-04T23:34:28.694Z,15.83
2018-06-04T23:36:58.401Z,14.60
2018-06-04T23:39:26.294Z,14.70
2018-06-04T23:41:56.182Z,19.73
2018-06-04T23:44:24.882Z,14.00
2018-06-04T23:46:52.673Z,15.10
2018-06-04T23:49:24.898Z,17.13
2018-06-04T23:51:52.923Z,13.53
2018-06-04T23:54:20.810Z,13.00
2018-06-04T23:56:48.530Z,14.43
2018-06-04T23:59:16.337Z,15.03
